Time;durP1;ratioP1;P1;durP2;ratioP2;P2;SDS_P1;SDS_P2;PMS_P1;PMS_P2;Temp;Humidity;BMP_temperature;BMP_pressure;BME280_temperature;BME280_humidity;BME280_pressure;Samples;Min_cycle;Max_cycle;Signal;HPM_P1;HPM_P2
2022/08/18 00:02:23;;;;;;;6.67;3.27;;;17.30;99.90;;;;;;5012744;28;20172;-68
2022/08/18 00:04:49;;;;;;;6.10;3.67;;;17.30;99.90;;;;;;5012667;28;20179;-68
2022/08/18 00:07:19;;;;;;;7.73;3.40;;;17.30;99.90;;;;;;5012775;28;20418;-68
2022/08/18 00:09:46;;;;;;;7.13;3.13;;;17.30;99.90;;;;;;5012933;28;20190;-68
2022/08/18 00:12:16;;;;;;;6.17;2.87;;;17.40;99.90;;;;;;5012421;28;20918;-69
2022/08/18 00:14:43;;;;;;;5.33;3.00;;;17.40;99.90;;;;;;5012799;28;20415;-68
2022/08/18 00:17:09;;;;;;;5.93;3.00;;;17.40;99.90;;;;;;5012993;28;20453;-68
2022/08/18 00:19:34;;;;;;;5.10;2.90;;;17.40;99.90;;;;;;5012744;28;20417;-68
2022/08/18 00:22:00;;;;;;;4.00;2.70;;;17.50;99.90;;;;;;5012175;28;20182;-68
2022/08/18 00:24:25;;;;;;;5.60;3.63;;;17.60;99.90;;;;;;5012621;28;20172;-68
2022/08/18 00:26:51;;;;;;;5.80;3.03;;;17.50;99.90;;;;;;5012793;28;20175;-66
2022/08/18 00:29:17;;;;;;;7.17;2.90;;;17.60;99.90;;;;;;5012701;28;20175;-66
2022/08/18 00:31:43;;;;;;;5.00;3.03;;;17.60;99.90;;;;;;5012200;28;20202;-66
2022/08/18 00:34:09;;;;;;;8.87;2.93;;;17.50;99.90;;;;;;5012502;28;20476;-66
2022/08/18 00:36:34;;;;;;;5.00;3.07;;;17.50;99.90;;;;;;5012544;28;20635;-66
2022/08/18 00:39:01;;;;;;;4.83;2.60;;;17.50;99.90;;;;;;5012465;28;20414;-66
2022/08/18 00:41:28;;;;;;;4.57;2.60;;;17.30;99.90;;;;;;5012177;28;20617;-66
2022/08/18 00:43:57;;;;;;;5.80;2.90;;;17.30;99.90;;;;;;5012593;28;20925;-66
2022/08/18 00:46:32;;;;;;;6.33;3.43;;;17.20;99.90;;;;;;5012857;28;20414;-66
2022/08/18 00:48:58;;;;;;;6.40;3.27;;;17.20;99.90;;;;;;5012860;28;20941;-66
2022/08/18 00:51:27;;;;;;;8.97;2.70;;;17.10;99.90;;;;;;5011519;28;20886;-66
2022/08/18 00:53:57;;;;;;;7.30;3.67;;;17.20;99.90;;;;;;5012530;28;20440;-65
2022/08/18 00:56:30;;;;;;;5.43;2.97;;;17.10;99.90;;;;;;5012287;28;20497;-66
2022/08/18 00:59:16;;;;;;;5.37;2.80;;;17.10;99.90;;;;;;5012316;28;20410;-66
2022/08/18 01:01:43;;;;;;;4.77;2.93;;;17.10;99.90;;;;;;5011830;28;20410;-65
2022/08/18 01:04:16;;;;;;;9.73;3.47;;;17.10;99.90;;;;;;5012320;28;20867;-66
2022/08/18 01:06:53;;;;;;;5.70;2.60;;;17.10;99.90;;;;;;5012307;28;20417;-66
2022/08/18 01:09:19;;;;;;;13.47;3.00;;;17.00;99.90;;;;;;5012049;28;20512;-66
2022/08/18 01:11:45;;;;;;;8.20;3.77;;;17.00;99.90;;;;;;5011886;28;20513;-66
2022/08/18 01:14:14;;;;;;;5.80;3.10;;;17.00;99.90;;;;;;5012337;28;20180;-66
2022/08/18 01:22:26;;;;;;;6.30;3.40;;;16.90;99.90;;;;;;5011698;28;20396;-66
2022/08/18 01:27:40;;;;;;;9.37;3.60;;;17.00;99.90;;;;;;5012400;28;20497;-66
2022/08/18 01:30:09;;;;;;;5.70;3.30;;;16.90;99.90;;;;;;5012091;28;20418;-67
2022/08/18 01:32:36;;;;;;;5.57;2.90;;;16.90;99.90;;;;;;5011703;28;20413;-66
2022/08/18 01:35:04;;;;;;;5.43;3.17;;;16.90;99.90;;;;;;5012061;28;20440;-66
2022/08/18 01:37:29;;;;;;;6.77;2.77;;;16.90;99.90;;;;;;5011933;28;20582;-66
2022/08/18 01:39:55;;;;;;;6.47;3.30;;;16.80;99.90;;;;;;5011739;28;20448;-67
2022/08/18 01:42:21;;;;;;;5.70;3.43;;;16.90;99.90;;;;;;5011633;28;20207;-67
2022/08/18 01:44:49;;;;;;;9.23;3.50;;;16.90;99.90;;;;;;5011796;28;20198;-67
2022/08/18 01:47:17;;;;;;;5.47;3.40;;;16.90;99.90;;;;;;5011965;28;20186;-67
2022/08/18 01:49:42;;;;;;;5.30;3.23;;;16.90;99.90;;;;;;5012014;28;20418;-67
2022/08/18 01:52:12;;;;;;;6.87;3.60;;;16.90;99.90;;;;;;5010807;28;20437;-67
2022/08/18 01:54:39;;;;;;;7.20;3.40;;;16.90;99.90;;;;;;5012304;28;20174;-67
2022/08/18 01:57:05;;;;;;;9.27;4.70;;;16.90;99.90;;;;;;5015233;28;20462;-67
2022/08/18 01:59:31;;;;;;;9.83;4.00;;;16.80;99.90;;;;;;5015284;28;20420;-67
2022/08/18 02:01:58;;;;;;;6.60;3.70;;;16.90;99.90;;;;;;5014764;28;20207;-68
2022/08/18 02:04:32;;;;;;;7.03;3.10;;;16.90;99.90;;;;;;5015329;28;20175;-67
2022/08/18 02:06:58;;;;;;;6.37;3.50;;;16.90;99.90;;;;;;5015316;28;20800;-67
2022/08/18 02:09:24;;;;;;;6.40;3.70;;;16.90;99.90;;;;;;5015211;28;20432;-68
2022/08/18 02:11:49;;;;;;;6.17;3.00;;;16.90;99.90;;;;;;5014836;28;20430;-67
2022/08/18 02:14:15;;;;;;;6.40;2.90;;;16.90;99.90;;;;;;5015448;28;20181;-67
2022/08/18 02:16:41;;;;;;;10.70;4.20;;;16.80;99.90;;;;;;5015115;28;20502;-67
2022/08/18 02:19:06;;;;;;;5.63;3.63;;;16.90;99.90;;;;;;5015332;28;20175;-67
2022/08/18 02:21:32;;;;;;;5.23;3.07;;;16.90;99.90;;;;;;5014744;28;20182;-67
2022/08/18 02:23:57;;;;;;;7.77;3.50;;;16.90;99.90;;;;;;5015018;28;20182;-67
2022/08/18 02:26:24;;;;;;;6.30;3.03;;;16.90;99.90;;;;;;5014891;28;20179;-67
2022/08/18 02:28:50;;;;;;;8.30;3.57;;;16.90;99.90;;;;;;5014959;28;20231;-67
2022/08/18 02:31:19;;;;;;;6.83;3.50;;;16.90;99.90;;;;;;5014476;28;21002;-67
2022/08/18 02:33:46;;;;;;;9.00;3.47;;;16.90;99.90;;;;;;5014837;28;20418;-67
2022/08/18 02:36:12;;;;;;;10.60;4.33;;;16.90;99.90;;;;;;5014654;28;20419;-67
2022/08/18 02:38:39;;;;;;;5.43;3.70;;;16.90;99.90;;;;;;5014492;28;20454;-67
2022/08/18 02:41:06;;;;;;;5.43;3.37;;;16.90;99.90;;;;;;5014235;28;20410;-67
2022/08/18 02:43:32;;;;;;;7.50;3.73;;;16.90;99.90;;;;;;5014684;28;20898;-68
2022/08/18 02:45:58;;;;;;;4.77;2.67;;;16.90;99.90;;;;;;5014543;28;20402;-67
2022/08/18 02:48:32;;;;;;;6.10;3.17;;;16.90;99.90;;;;;;5014462;28;20257;-67
2022/08/18 02:51:05;;;;;;;9.80;3.57;;;16.90;99.90;;;;;;5013493;28;20182;-67
2022/08/18 02:53:31;;;;;;;8.23;3.47;;;16.90;99.90;;;;;;5014459;28;20417;-68
2022/08/18 02:56:27;;;;;;;6.13;3.30;;;16.90;99.90;;;;;;5014004;28;20411;-67
2022/08/18 02:59:15;;;;;;;9.23;4.27;;;16.90;99.90;;;;;;5014206;28;20437;-68
2022/08/18 03:01:44;;;;;;;3.30;2.50;;;16.90;99.90;;;;;;5013590;28;20440;-67
2022/08/18 03:04:14;;;;;;;5.80;2.93;;;16.90;99.90;;;;;;5014050;28;20398;-67
2022/08/18 03:06:41;;;;;;;5.13;3.03;;;16.80;99.90;;;;;;5013106;28;20415;-67
2022/08/18 03:09:11;;;;;;;7.40;3.77;;;16.80;99.90;;;;;;5014027;28;20406;-67
2022/08/18 03:11:36;;;;;;;5.10;3.60;;;16.80;99.90;;;;;;5013454;28;20418;-67
2022/08/18 03:14:04;;;;;;;5.17;3.10;;;16.90;99.90;;;;;;5013951;28;20410;-67
2022/08/18 03:16:31;;;;;;;7.10;3.73;;;16.90;99.90;;;;;;5013807;28;20194;-67
2022/08/18 03:18:58;;;;;;;5.93;3.10;;;16.80;99.90;;;;;;5013901;28;20765;-67
2022/08/18 03:21:28;;;;;;;7.97;4.03;;;16.80;99.90;;;;;;5013130;28;20414;-67
2022/08/18 03:23:55;;;;;;;6.40;3.47;;;16.80;99.90;;;;;;5013559;28;20421;-67
2022/08/18 03:26:22;;;;;;;7.43;3.50;;;16.80;99.90;;;;;;5013520;28;20765;-67
2022/08/18 03:28:51;;;;;;;7.10;3.67;;;16.80;99.90;;;;;;5013718;28;20784;-68
2022/08/18 03:31:19;;;;;;;5.77;3.80;;;16.80;99.90;;;;;;5013167;28;20437;-66
2022/08/18 03:33:46;;;;;;;8.17;3.40;;;16.70;99.90;;;;;;5013642;28;20867;-67
2022/08/18 03:36:21;;;;;;;5.77;3.20;;;16.80;99.90;;;;;;5013563;28;20422;-67
2022/08/18 03:38:47;;;;;;;6.10;3.53;;;16.80;99.90;;;;;;5013729;28;20551;-67
2022/08/18 03:41:16;;;;;;;6.13;3.30;;;16.80;99.90;;;;;;5013119;28;20456;-67
2022/08/18 03:43:42;;;;;;;5.57;3.97;;;16.80;99.90;;;;;;5013555;28;20460;-67
2022/08/18 03:46:13;;;;;;;6.47;3.33;;;16.80;99.90;;;;;;5013802;28;20415;-67
2022/08/18 03:48:40;;;;;;;10.30;4.40;;;16.80;99.90;;;;;;5013486;28;20475;-67
2022/08/18 03:51:08;;;;;;;10.37;5.23;;;16.80;99.90;;;;;;5012278;28;20755;-67
2022/08/18 03:53:35;;;;;;;10.17;4.33;;;16.70;99.90;;;;;;5013516;28;20837;-67
2022/08/18 03:56:06;;;;;;;9.30;4.23;;;16.70;99.90;;;;;;5013328;28;20497;-67
2022/08/18 03:58:31;;;;;;;7.73;4.00;;;16.70;99.90;;;;;;5012847;28;20458;-68
2022/08/18 04:00:57;;;;;;;5.57;3.70;;;16.70;99.90;;;;;;5012911;28;20764;-67
2022/08/18 04:03:23;;;;;;;6.17;3.50;;;16.70;99.90;;;;;;5012873;28;20519;-67
2022/08/18 04:05:48;;;;;;;7.03;3.73;;;16.70;99.90;;;;;;5013275;28;20250;-67
2022/08/18 04:08:14;;;;;;;8.00;3.80;;;16.70;99.90;;;;;;5013075;28;20175;-67
2022/08/18 04:10:43;;;;;;;6.23;4.07;;;16.70;99.90;;;;;;5012831;28;20202;-67
2022/08/18 04:13:09;;;;;;;7.47;4.20;;;16.70;99.90;;;;;;5012273;28;20652;-66
2022/08/18 04:15:36;;;;;;;10.90;4.30;;;16.80;99.90;;;;;;5012883;28;20425;-66
2022/08/18 04:18:07;;;;;;;8.67;3.83;;;16.70;99.90;;;;;;5012411;28;20203;-67
2022/08/18 04:20:34;;;;;;;5.90;3.83;;;16.70;99.90;;;;;;5012746;28;20390;-67
2022/08/18 04:23:00;;;;;;;5.80;4.07;;;16.70;99.90;;;;;;5012393;28;20473;-67
2022/08/18 04:25:25;;;;;;;7.10;4.27;;;16.70;99.90;;;;;;5012806;28;20410;-66
2022/08/18 04:27:56;;;;;;;7.27;3.50;;;16.70;99.90;;;;;;5012564;28;20925;-67
2022/08/18 04:30:23;;;;;;;6.63;4.20;;;16.70;99.90;;;;;;5012798;28;20627;-67
2022/08/18 04:32:49;;;;;;;7.00;3.73;;;16.70;99.90;;;;;;5012192;28;20413;-67
2022/08/18 04:35:15;;;;;;;7.23;3.77;;;16.70;99.90;;;;;;5012638;28;20795;-67
2022/08/18 04:37:42;;;;;;;9.60;3.83;;;16.80;99.90;;;;;;5012606;28;20460;-67
2022/08/18 04:40:09;;;;;;;8.30;4.77;;;16.80;99.90;;;;;;5012674;28;20511;-67
2022/08/18 04:42:35;;;;;;;6.97;3.67;;;16.80;99.90;;;;;;5011948;28;21110;-67
2022/08/18 04:45:00;;;;;;;9.40;4.63;;;16.80;99.90;;;;;;5012438;28;20423;-67
2022/08/18 04:47:26;;;;;;;6.90;3.80;;;16.80;99.90;;;;;;5012498;28;20414;-67
2022/08/18 04:49:52;;;;;;;5.83;3.27;;;16.80;99.90;;;;;;5012549;28;20179;-67
2022/08/18 04:55:02;;;;;;;6.80;4.03;;;16.80;99.90;;;;;;5012466;28;20190;-66
2022/08/18 04:57:30;;;;;;;11.43;4.27;;;16.70;99.90;;;;;;5012232;28;20500;-66
2022/08/18 04:59:57;;;;;;;6.73;3.50;;;16.80;99.90;;;;;;5011052;28;20983;-67
2022/08/18 05:02:23;;;;;;;6.07;4.20;;;16.80;99.90;;;;;;5012026;28;20445;-66
2022/08/18 05:04:48;;;;;;;6.60;3.63;;;16.80;99.90;;;;;;5012077;28;20406;-66
2022/08/18 05:07:17;;;;;;;8.43;4.10;;;16.90;99.90;;;;;;5012289;28;20774;-66
2022/08/18 05:09:43;;;;;;;12.60;4.93;;;16.90;99.90;;;;;;5012520;28;20225;-67
2022/08/18 05:12:13;;;;;;;10.90;5.17;;;16.90;99.90;;;;;;5011756;28;20433;-67
2022/08/18 05:14:43;;;;;;;8.70;4.47;;;16.90;99.90;;;;;;5012522;28;20176;-66
2022/08/18 05:17:10;;;;;;;9.33;4.27;;;16.90;99.90;;;;;;5012332;28;20481;-66
2022/08/18 05:19:36;;;;;;;7.30;4.37;;;16.90;99.90;;;;;;5012182;28;20485;-66
2022/08/18 05:22:02;;;;;;;9.27;5.17;;;17.00;99.90;;;;;;5011854;28;20541;-67
2022/08/18 05:24:31;;;;;;;6.10;3.63;;;17.00;99.90;;;;;;5012271;28;20182;-67
2022/08/18 05:26:57;;;;;;;8.27;3.30;;;17.10;99.90;;;;;;5012159;28;20534;-67
2022/08/18 05:29:23;;;;;;;10.43;4.80;;;17.10;99.90;;;;;;5012269;28;21192;-67
2022/08/18 05:31:51;;;;;;;11.73;4.07;;;17.10;99.90;;;;;;5015710;28;20176;-67
2022/08/18 05:34:20;;;;;;;7.73;5.07;;;17.20;99.90;;;;;;5015794;28;20179;-66
2022/08/18 05:36:49;;;;;;;7.47;3.93;;;17.20;99.90;;;;;;5015967;28;20417;-67
2022/08/18 05:39:20;;;;;;;8.90;4.20;;;17.20;99.90;;;;;;5015790;28;20871;-67
2022/08/18 05:41:50;;;;;;;6.30;3.50;;;17.20;99.90;;;;;;5015414;28;20439;-67
2022/08/18 05:44:24;;;;;;;7.50;4.10;;;17.20;99.90;;;;;;5015462;28;20839;-67
2022/08/18 05:47:00;;;;;;;7.27;4.13;;;17.20;99.90;;;;;;5015548;28;20786;-67
2022/08/18 05:49:26;;;;;;;6.90;3.97;;;17.20;99.90;;;;;;5015526;28;20402;-67
2022/08/18 05:51:59;;;;;;;8.33;4.33;;;17.30;99.90;;;;;;5014243;28;20418;-67
2022/08/18 05:57:17;;;;;;;8.57;3.87;;;17.40;99.90;;;;;;5015577;28;20465;-67
2022/08/18 05:59:44;;;;;;;7.23;4.63;;;17.40;99.90;;;;;;5015117;28;20874;-67
2022/08/18 06:02:09;;;;;;;9.60;4.40;;;17.50;99.90;;;;;;5014808;28;20425;-66
2022/08/18 06:05:07;;;;;;;6.00;4.13;;;17.50;99.90;;;;;;5015157;28;20410;-66
2022/08/18 06:07:39;;;;;;;9.57;3.80;;;17.50;99.90;;;;;;5015128;28;20160;-67
2022/08/18 06:10:07;;;;;;;11.33;4.30;;;17.60;99.90;;;;;;5015200;28;20414;-67
2022/08/18 06:12:36;;;;;;;8.43;4.67;;;17.50;99.90;;;;;;5014667;28;20444;-67
2022/08/18 06:15:50;;;;;;;14.50;6.37;;;17.50;99.90;;;;;;5014979;28;20409;-68
2022/08/18 06:18:22;;;;;;;12.27;5.90;;;17.60;99.90;;;;;;5014623;28;20480;-67
2022/08/18 06:21:04;;;;;;;10.40;5.27;;;17.70;99.90;;;;;;5014937;28;20417;-67
2022/08/18 06:23:55;;;;;;;8.30;5.37;;;17.70;99.90;;;;;;5014794;28;20505;-67
2022/08/18 06:26:53;;;;;;;8.97;4.63;;;17.80;99.90;;;;;;5014929;28;20442;-67
2022/08/18 06:29:39;;;;;;;7.20;3.83;;;17.90;99.90;;;;;;5010206;28;20434;-67
2022/08/18 06:32:19;;;;;;;8.53;4.63;;;17.90;99.90;;;;;;5014515;28;20445;-67
2022/08/18 06:35:02;;;;;;;8.03;4.30;;;18.00;99.90;;;;;;5014884;28;20402;-68
2022/08/18 06:38:37;;;;;;;9.23;4.50;;;18.10;99.90;;;;;;5015056;28;20911;-67
2022/08/18 06:40:20;;;;;;;7.20;4.07;;;18.10;99.90;;;;;;5014488;28;20449;-66
2022/08/18 06:42:47;;;;;;;10.40;4.50;;;18.20;99.90;;;;;;5014345;28;20418;-67
2022/08/18 06:45:17;;;;;;;8.87;4.67;;;18.30;99.90;;;;;;5014794;28;20263;-67
2022/08/18 06:48:02;;;;;;;10.17;4.30;;;18.20;99.90;;;;;;5015030;28;20762;-67
2022/08/18 06:50:31;;;;;;;8.70;4.83;;;18.40;99.90;;;;;;5013802;28;20398;-67
2022/08/18 06:53:00;;;;;;;7.53;4.50;;;18.50;99.90;;;;;;5014139;28;20421;-67
2022/08/18 06:55:38;;;;;;;7.03;4.00;;;18.50;99.90;;;;;;5014364;28;20414;-67
2022/08/18 06:58:20;;;;;;;10.33;5.00;;;18.60;99.90;;;;;;5014457;28;20488;-68
2022/08/18 07:00:51;;;;;;;7.67;4.80;;;18.70;99.90;;;;;;5014125;28;20414;-67
2022/08/18 07:03:23;;;;;;;7.00;4.07;;;18.80;99.90;;;;;;5013989;28;20414;-67
2022/08/18 07:06:07;;;;;;;9.93;4.23;;;18.90;99.90;;;;;;5014290;28;20932;-67
2022/08/18 07:08:36;;;;;;;9.17;4.20;;;18.90;99.90;;;;;;5014001;28;20416;-67
2022/08/18 07:11:24;;;;;;;8.10;5.57;;;19.00;99.90;;;;;;5013812;28;20411;-67
2022/08/18 07:13:53;;;;;;;9.30;4.07;;;19.00;99.90;;;;;;5014180;28;20422;-67
2022/08/18 07:16:27;;;;;;;7.70;4.63;;;18.90;99.90;;;;;;5013677;28;20406;-67
2022/08/18 07:18:53;;;;;;;14.57;5.30;;;18.80;99.90;;;;;;5013566;28;20498;-67
2022/08/18 07:21:29;;;;;;;6.30;3.60;;;18.80;99.90;;;;;;5013649;28;20505;-68
2022/08/18 07:24:06;;;;;;;7.30;3.83;;;18.80;99.90;;;;;;5013572;28;20930;-67
2022/08/18 07:27:03;;;;;;;7.60;3.80;;;18.70;99.90;;;;;;5013856;28;20402;-68
2022/08/18 07:29:34;;;;;;;8.93;4.30;;;18.70;99.90;;;;;;5013670;28;20414;-67
2022/08/18 07:32:06;;;;;;;6.53;4.20;;;18.80;99.90;;;;;;5012940;28;20429;-68
2022/08/18 07:34:37;;;;;;;10.27;4.00;;;18.80;99.90;;;;;;5013681;28;20456;-67
2022/08/18 07:37:13;;;;;;;9.40;5.10;;;18.80;99.90;;;;;;5013613;28;20500;-66
2022/08/18 07:39:58;;;;;;;7.30;3.60;;;18.80;99.90;;;;;;5013657;28;20433;-67
2022/08/18 07:42:43;;;;;;;7.00;4.00;;;18.80;99.90;;;;;;5013175;28;20872;-67
2022/08/18 07:45:18;;;;;;;10.53;4.90;;;18.70;99.90;;;;;;5013332;28;20421;-67
2022/08/18 07:48:14;;;;;;;7.33;4.33;;;18.70;99.90;;;;;;5013254;28;20394;-67
2022/08/18 07:51:02;;;;;;;9.60;4.10;;;18.70;99.90;;;;;;5012012;28;20457;-68
2022/08/18 07:53:34;;;;;;;10.27;5.13;;;18.70;99.90;;;;;;5012719;28;20442;-68
2022/08/18 07:56:26;;;;;;;10.60;5.03;;;18.70;99.90;;;;;;5013050;28;20887;-67
2022/08/18 07:59:08;;;;;;;7.33;4.23;;;18.60;99.90;;;;;;5012485;28;20477;-67
2022/08/18 08:01:51;;;;;;;9.13;3.97;;;18.70;99.90;;;;;;5012903;28;20502;-67
2022/08/18 08:04:17;;;;;;;8.50;4.40;;;18.80;99.90;;;;;;5013058;28;20466;-68
2022/08/18 08:07:00;;;;;;;6.67;4.00;;;19.00;99.90;;;;;;5013223;28;20943;-68
2022/08/18 08:09:45;;;;;;;9.60;4.57;;;19.10;99.90;;;;;;5013161;28;20516;-68
2022/08/18 08:12:21;;;;;;;10.13;4.30;;;19.20;99.90;;;;;;5012437;28;20613;-68
2022/08/18 08:14:50;;;;;;;11.20;4.30;;;19.30;99.90;;;;;;5013213;28;20402;-68
2022/08/18 08:17:24;;;;;;;13.40;5.13;;;19.40;99.90;;;;;;5013144;28;20487;-69
2022/08/18 08:20:12;;;;;;;7.40;4.80;;;19.60;99.90;;;;;;5012875;28;20410;-68
2022/08/18 08:22:59;;;;;;;10.17;3.80;;;19.80;99.90;;;;;;5012686;28;20414;-68
2022/08/18 08:25:36;;;;;;;6.20;3.70;;;20.20;99.90;;;;;;5012902;28;21090;-68
2022/08/18 08:28:23;;;;;;;5.80;3.30;;;20.40;99.90;;;;;;5012993;28;20533;-68
2022/08/18 08:31:03;;;;;;;7.67;3.77;;;20.50;99.90;;;;;;5012968;28;20472;-68
2022/08/18 08:33:39;;;;;;;7.33;3.97;;;20.60;99.90;;;;;;5012575;28;20418;-68
2022/08/18 08:36:10;;;;;;;5.73;3.00;;;20.80;99.90;;;;;;5012748;28;20509;-68
2022/08/18 08:38:56;;;;;;;9.03;3.90;;;21.10;99.90;;;;;;5013154;28;20466;-67
2022/08/18 08:41:48;;;;;;;10.80;3.40;;;21.10;99.90;;;;;;5011955;28;20429;-67
2022/08/18 08:44:23;;;;;;;12.80;4.00;;;21.20;99.90;;;;;;5012802;28;20450;-67
2022/08/18 08:47:01;;;;;;;19.20;4.10;;;21.30;99.90;;;;;;5013068;28;20445;-68
2022/08/18 08:49:35;;;;;;;4.93;3.37;;;21.60;99.90;;;;;;5013117;28;20414;-68
2022/08/18 08:52:08;;;;;;;8.30;4.30;;;22.60;99.90;;;;;;5011829;28;20413;-68
2022/08/18 08:54:45;;;;;;;6.00;3.53;;;23.40;99.90;;;;;;5013277;28;20394;-67
2022/08/18 08:57:13;;;;;;;9.20;3.80;;;24.60;99.90;;;;;;5013035;28;20440;-68
2022/08/18 08:59:41;;;;;;;6.17;3.70;;;24.70;98.90;;;;;;5013232;28;20445;-68
2022/08/18 09:02:19;;;;;;;6.00;3.67;;;24.60;98.70;;;;;;5012866;28;20415;-69
2022/08/18 09:04:56;;;;;;;7.73;3.43;;;24.40;99.10;;;;;;5013112;28;20443;-68
2022/08/18 09:07:21;;;;;;;6.43;3.50;;;24.50;99.10;;;;;;5016345;28;20424;-68
2022/08/18 09:09:56;;;;;;;7.90;4.17;;;24.20;99.10;;;;;;5016466;28;20807;-68
2022/08/18 09:12:43;;;;;;;6.13;3.60;;;24.50;98.60;;;;;;5015899;28;20672;-68
2022/08/18 09:15:36;;;;;;;9.80;4.13;;;24.50;98.20;;;;;;5016212;28;20417;-68
2022/08/18 09:18:14;;;;;;;8.00;4.53;;;24.40;98.80;;;;;;5016075;28;20789;-68
2022/08/18 09:20:46;;;;;;;8.30;4.80;;;24.50;98.30;;;;;;5015865;28;20480;-69
2022/08/18 09:23:20;;;;;;;9.73;4.60;;;24.70;98.00;;;;;;5015936;28;20459;-68
2022/08/18 09:25:52;;;;;;;8.97;4.97;;;24.40;97.80;;;;;;5015916;28;20408;-68
2022/08/18 09:28:26;;;;;;;13.70;4.90;;;24.60;97.80;;;;;;5016090;28;20425;-69
2022/08/18 09:31:04;;;;;;;7.20;4.90;;;24.60;98.60;;;;;;5015875;28;20420;-68
2022/08/18 09:33:45;;;;;;;9.40;4.63;;;24.80;97.50;;;;;;5016089;28;20965;-68
2022/08/18 09:36:48;;;;;;;13.73;5.37;;;24.70;98.30;;;;;;5015853;28;20392;-68
2022/08/18 09:42:39;;;;;;;8.87;4.60;;;24.60;97.00;;;;;;5015492;28;20901;-68
2022/08/18 09:45:30;;;;;;;9.37;4.80;;;24.20;98.00;;;;;;5015911;28;20398;-69
2022/08/18 09:48:05;;;;;;;8.47;4.60;;;23.60;98.70;;;;;;5015803;28;20433;-69
2022/08/18 09:50:36;;;;;;;8.67;4.97;;;23.50;99.90;;;;;;5014394;28;20409;-68
2022/08/18 09:53:35;;;;;;;9.10;4.70;;;23.40;99.70;;;;;;5015302;28;20417;-68
2022/08/18 09:56:01;;;;;;;8.67;4.83;;;23.60;99.60;;;;;;5015570;28;20720;-69
2022/08/18 09:58:28;;;;;;;10.93;5.27;;;23.50;99.90;;;;;;5015547;28;20455;-68
2022/08/18 10:01:18;;;;;;;9.43;5.27;;;23.60;99.60;;;;;;5014992;28;20420;-68
2022/08/18 10:04:12;;;;;;;14.53;5.50;;;23.70;99.40;;;;;;5015271;28;20898;-68
2022/08/18 10:06:39;;;;;;;6.30;4.00;;;23.80;99.20;;;;;;5014894;28;20424;-68
2022/08/18 10:09:23;;;;;;;8.83;5.57;;;24.00;98.80;;;;;;5015237;28;20977;-68
2022/08/18 10:12:02;;;;;;;9.70;5.17;;;24.20;98.80;;;;;;5014794;28;20424;-68
2022/08/18 10:14:47;;;;;;;7.07;4.23;;;24.40;97.90;;;;;;5015498;28;20901;-68
2022/08/18 10:17:36;;;;;;;7.47;4.90;;;24.40;98.10;;;;;;5014484;28;20506;-69
2022/08/18 10:20:30;;;;;;;6.73;4.17;;;24.30;98.50;;;;;;5011800;28;20418;-69
2022/08/18 10:22:56;;;;;;;8.50;4.17;;;24.40;98.70;;;;;;5014495;28;20409;-69
2022/08/18 10:25:38;;;;;;;6.20;3.63;;;24.30;98.50;;;;;;5015030;28;20769;-69
2022/08/18 10:28:08;;;;;;;4.90;3.33;;;24.60;97.30;;;;;;5014758;28;20163;-69
2022/08/18 10:30:35;;;;;;;8.93;4.27;;;24.90;96.70;;;;;;5014573;28;20417;-69
2022/08/18 10:33:04;;;;;;;8.13;4.30;;;25.10;95.80;;;;;;5014478;28;20437;-69
2022/08/18 10:35:35;;;;;;;6.90;3.80;;;25.00;96.50;;;;;;5014564;28;20484;-68
2022/08/18 10:38:10;;;;;;;8.07;4.33;;;25.00;97.00;;;;;;5014593;28;20453;-68
2022/08/18 10:40:37;;;;;;;5.77;3.87;;;24.90;97.30;;;;;;5014313;28;20440;-69
2022/08/18 10:43:18;;;;;;;9.53;5.20;;;24.90;96.90;;;;;;5014119;28;20961;-68
2022/08/18 10:45:46;;;;;;;9.27;5.33;;;25.00;96.20;;;;;;5014620;28;20449;-69
2022/08/18 10:48:22;;;;;;;7.50;4.87;;;24.50;97.40;;;;;;5014342;28;20409;-68
2022/08/18 10:50:50;;;;;;;6.87;4.30;;;24.30;97.40;;;;;;5013144;28;20441;-68
2022/08/18 10:53:16;;;;;;;5.63;3.70;;;24.10;97.40;;;;;;5014117;28;20475;-68
2022/08/18 10:56:00;;;;;;;7.60;4.13;;;23.90;97.90;;;;;;5014391;28;20910;-68
2022/08/18 10:58:44;;;;;;;6.77;4.10;;;23.80;98.50;;;;;;5014243;28;20229;-67
2022/08/18 11:01:28;;;;;;;6.80;3.80;;;23.90;98.00;;;;;;5013880;28;20401;-68
2022/08/18 11:04:21;;;;;;;9.10;5.40;;;23.80;98.00;;;;;;5014409;28;20412;-68
2022/08/18 11:06:50;;;;;;;6.57;4.70;;;23.60;98.40;;;;;;5014093;28;20860;-67
2022/08/18 11:09:26;;;;;;;9.77;4.90;;;23.30;98.80;;;;;;5014354;28;20413;-67
2022/08/18 11:11:55;;;;;;;8.30;4.47;;;23.00;99.70;;;;;;5013739;28;20424;-67
2022/08/18 11:14:45;;;;;;;9.60;4.37;;;22.80;99.90;;;;;;5014220;28;20822;-68
2022/08/18 11:17:11;;;;;;;8.80;3.80;;;22.70;99.90;;;;;;5014216;28;20540;-67
2022/08/18 11:19:39;;;;;;;17.90;4.70;;;22.60;99.90;;;;;;5014061;28;20517;-68
2022/08/18 11:22:05;;;;;;;8.73;4.60;;;22.60;99.90;;;;;;5013471;28;20175;-67
2022/08/18 11:24:34;;;;;;;6.63;3.80;;;22.60;99.90;;;;;;5013941;28;20429;-67
2022/08/18 11:27:02;;;;;;;10.47;5.00;;;22.50;99.90;;;;;;5013418;28;20305;-68
2022/08/18 11:29:38;;;;;;;7.70;4.40;;;22.40;99.90;;;;;;5013788;28;20414;-67
2022/08/18 11:32:14;;;;;;;5.70;3.60;;;22.40;99.90;;;;;;5013364;28;20516;-68
2022/08/18 11:34:42;;;;;;;12.73;4.47;;;22.40;99.90;;;;;;5013717;28;20425;-68
2022/08/18 11:37:19;;;;;;;10.60;4.40;;;22.40;99.90;;;;;;5013601;28;20918;-67
2022/08/18 11:39:50;;;;;;;8.70;4.53;;;22.40;99.90;;;;;;5013769;28;20440;-67
2022/08/18 11:42:18;;;;;;;10.33;6.13;;;22.40;99.90;;;;;;5013213;28;20421;-68
2022/08/18 11:44:44;;;;;;;8.00;4.60;;;22.30;99.90;;;;;;5013377;28;20746;-67
2022/08/18 11:47:20;;;;;;;11.53;5.03;;;22.20;99.90;;;;;;5013422;28;20429;-67
2022/08/18 11:50:09;;;;;;;8.27;4.43;;;22.30;99.90;;;;;;5013691;28;20914;-67
2022/08/18 11:52:50;;;;;;;9.17;4.37;;;22.50;99.90;;;;;;5011720;28;20761;-67
2022/08/18 11:55:20;;;;;;;6.67;3.90;;;22.50;99.90;;;;;;5013278;28;20784;-68
2022/08/18 11:57:53;;;;;;;6.70;3.63;;;22.60;99.90;;;;;;5013046;28;20950;-67
2022/08/18 12:00:40;;;;;;;7.43;4.67;;;22.80;99.90;;;;;;5012998;28;20406;-68
2022/08/18 12:03:25;;;;;;;8.20;4.40;;;22.80;99.90;;;;;;5012493;28;20878;-68
2022/08/18 12:05:58;;;;;;;7.80;4.43;;;22.90;99.90;;;;;;5013132;28;20510;-68
2022/08/18 12:08:34;;;;;;;9.83;4.60;;;23.00;99.90;;;;;;5012894;28;20508;-68
2022/08/18 12:11:22;;;;;;;6.93;3.70;;;23.10;99.70;;;;;;5012663;28;20431;-68
2022/08/18 12:13:57;;;;;;;14.60;4.23;;;23.20;98.60;;;;;;5013026;28;20417;-67
2022/08/18 12:16:42;;;;;;;7.60;3.83;;;23.20;98.90;;;;;;5013055;28;20456;-68
2022/08/18 12:19:12;;;;;;;10.10;4.37;;;23.30;98.80;;;;;;5012766;28;20465;-68
2022/08/18 12:21:41;;;;;;;10.17;5.20;;;23.50;98.50;;;;;;5012313;28;20409;-68
2022/08/18 12:24:31;;;;;;;9.63;4.87;;;23.80;98.10;;;;;;5012674;28;21201;-68
2022/08/18 12:26:58;;;;;;;8.20;4.50;;;23.90;97.60;;;;;;5012421;28;20544;-67
2022/08/18 12:29:24;;;;;;;7.63;4.70;;;24.30;96.90;;;;;;5012792;28;20787;-68
2022/08/18 12:31:53;;;;;;;7.73;3.40;;;24.50;96.10;;;;;;5012323;28;20406;-67
2022/08/18 12:34:23;;;;;;;6.17;4.50;;;24.60;96.10;;;;;;5012680;28;20537;-67
2022/08/18 12:36:50;;;;;;;6.40;4.17;;;25.10;94.80;;;;;;5012827;28;20398;-68
2022/08/18 12:39:17;;;;;;;9.93;4.67;;;25.00;95.50;;;;;;5012245;28;20421;-68
2022/08/18 12:41:42;;;;;;;7.20;5.03;;;24.80;95.10;;;;;;5012581;28;20416;-68
2022/08/18 12:44:08;;;;;;;7.47;4.90;;;24.60;95.60;;;;;;5012628;28;20406;-68
2022/08/18 12:46:34;;;;;;;6.70;4.83;;;24.50;95.20;;;;;;5012823;28;20183;-67
2022/08/18 12:49:01;;;;;;;7.70;3.90;;;24.50;95.50;;;;;;5012508;28;20416;-68
2022/08/18 12:51:27;;;;;;;9.60;5.00;;;24.40;95.50;;;;;;5011255;28;20202;-67
2022/08/18 12:53:53;;;;;;;9.57;4.83;;;24.40;95.30;;;;;;5012388;28;20444;-67
2022/08/18 12:56:23;;;;;;;11.10;5.00;;;24.70;94.90;;;;;;5012717;28;20198;-67
2022/08/18 12:58:49;;;;;;;6.43;4.20;;;24.90;95.30;;;;;;5012350;28;20205;-67
2022/08/18 13:01:17;;;;;;;7.37;3.90;;;25.30;94.00;;;;;;5011984;28;20501;-67
2022/08/18 13:03:44;;;;;;;9.77;4.47;;;25.50;93.50;;;;;;5012347;28;20440;-67
2022/08/18 13:06:11;;;;;;;10.77;5.40;;;25.30;93.40;;;;;;5012389;28;20406;-67
2022/08/18 13:08:37;;;;;;;6.63;4.07;;;25.30;93.20;;;;;;5012171;28;20451;-67
2022/08/18 13:11:09;;;;;;;11.10;4.53;;;25.20;92.90;;;;;;5012023;28;20938;-67
2022/08/18 13:13:36;;;;;;;9.20;4.53;;;25.20;92.90;;;;;;5012229;28;20472;-67
2022/08/18 13:16:02;;;;;;;11.90;4.60;;;25.30;92.90;;;;;;5012357;28;20754;-67
2022/08/18 13:18:28;;;;;;;7.77;4.43;;;25.20;93.20;;;;;;5012177;28;20479;-68
2022/08/18 13:20:53;;;;;;;7.30;3.80;;;25.20;92.70;;;;;;5012307;28;20438;-67
2022/08/18 13:23:19;;;;;;;5.70;3.60;;;25.40;91.40;;;;;;5011900;28;20217;-67
2022/08/18 13:25:45;;;;;;;8.30;3.67;;;25.40;92.40;;;;;;5012114;28;20174;-67
2022/08/18 13:28:10;;;;;;;7.53;4.40;;;25.40;90.60;;;;;;5011872;28;20220;-67
2022/08/18 13:30:36;;;;;;;9.20;4.43;;;25.40;90.80;;;;;;5012132;28;20183;-68